sensor_id;sensor_type;location;lat;lon;timestamp;pressure;altitude;pressure_sealevel;temperature;humidity
17855;BME280;9053;53.358;6.382;2023-02-18T00:00:31;101951.81;;;8.82;97.04
17855;BME280;9053;53.358;6.382;2023-02-18T00:03:01;101944.06;;;8.83;97.09
17855;BME280;9053;53.358;6.382;2023-02-18T00:05:31;101947.56;;;8.84;97.14
17855;BME280;9053;53.358;6.382;2023-02-18T00:08:00;101941.53;;;8.85;97.29
17855;BME280;9053;53.358;6.382;2023-02-18T00:10:30;101931.75;;;8.82;97.23
17855;BME280;9053;53.358;6.382;2023-02-18T00:13:00;101925.59;;;8.82;97.38
17855;BME280;9053;53.358;6.382;2023-02-18T00:15:33;101920.34;;;8.82;97.40
17855;BME280;9053;53.358;6.382;2023-02-18T00:18:04;101914.13;;;8.80;97.57
17855;BME280;9053;53.358;6.382;2023-02-18T00:20:34;101912.41;;;8.80;97.60
17855;BME280;9053;53.358;6.382;2023-02-18T00:23:04;101898.38;;;8.80;97.72
17855;BME280;9053;53.358;6.382;2023-02-18T00:25:34;101894.84;;;8.79;97.83
17855;BME280;9053;53.358;6.382;2023-02-18T00:28:04;101897.56;;;8.81;97.76
17855;BME280;9053;53.358;6.382;2023-02-18T00:30:39;101885.16;;;8.78;97.89
17855;BME280;9053;53.358;6.382;2023-02-18T00:33:09;101891.25;;;8.77;97.98
17855;BME280;9053;53.358;6.382;2023-02-18T00:35:39;101884.19;;;8.76;98.08
17855;BME280;9053;53.358;6.382;2023-02-18T00:38:08;101885.00;;;8.75;98.12
17855;BME280;9053;53.358;6.382;2023-02-18T00:40:39;101878.75;;;8.73;98.15
17855;BME280;9053;53.358;6.382;2023-02-18T00:43:09;101889.16;;;8.72;98.24
17855;BME280;9053;53.358;6.382;2023-02-18T00:45:41;101875.97;;;8.70;98.38
17855;BME280;9053;53.358;6.382;2023-02-18T00:48:11;101874.06;;;8.68;98.35
17855;BME280;9053;53.358;6.382;2023-02-18T00:50:41;101866.09;;;8.66;98.50
17855;BME280;9053;53.358;6.382;2023-02-18T00:53:11;101860.78;;;8.64;98.59
17855;BME280;9053;53.358;6.382;2023-02-18T00:55:41;101858.16;;;8.64;98.54
17855;BME280;9053;53.358;6.382;2023-02-18T00:58:14;101858.97;;;8.63;98.71
17855;BME280;9053;53.358;6.382;2023-02-18T01:00:47;101866.84;;;8.63;98.70
17855;BME280;9053;53.358;6.382;2023-02-18T01:03:17;101864.94;;;8.61;98.74
17855;BME280;9053;53.358;6.382;2023-02-18T01:05:48;101864.88;;;8.59;98.85
17855;BME280;9053;53.358;6.382;2023-02-18T01:08:19;101867.38;;;8.58;98.83
17855;BME280;9053;53.358;6.382;2023-02-18T01:10:53;101871.63;;;8.56;98.90
17855;BME280;9053;53.358;6.382;2023-02-18T01:13:24;101872.34;;;8.53;99.01
17855;BME280;9053;53.358;6.382;2023-02-18T01:15:56;101866.22;;;8.53;99.09
17855;BME280;9053;53.358;6.382;2023-02-18T01:18:27;101868.84;;;8.53;99.10
17855;BME280;9053;53.358;6.382;2023-02-18T01:20:57;101873.19;;;8.52;99.17
17855;BME280;9053;53.358;6.382;2023-02-18T01:23:27;101864.50;;;8.53;99.26
17855;BME280;9053;53.358;6.382;2023-02-18T01:25:57;101852.22;;;8.52;99.48
17855;BME280;9053;53.358;6.382;2023-02-18T01:28:27;101858.25;;;8.51;99.37
17855;BME280;9053;53.358;6.382;2023-02-18T01:31:03;101843.34;;;8.50;99.47
17855;BME280;9053;53.358;6.382;2023-02-18T01:33:34;101849.38;;;8.49;99.60
17855;BME280;9053;53.358;6.382;2023-02-18T01:36:05;101842.50;;;8.51;99.59
17855;BME280;9053;53.358;6.382;2023-02-18T01:38:36;101845.13;;;8.51;99.63
17855;BME280;9053;53.358;6.382;2023-02-18T01:41:07;101846.88;;;8.51;99.70
17855;BME280;9053;53.358;6.382;2023-02-18T01:43:37;101843.34;;;8.50;99.82
17855;BME280;9053;53.358;6.382;2023-02-18T01:46:16;101851.22;;;8.50;99.85
17855;BME280;9053;53.358;6.382;2023-02-18T01:48:49;101846.06;;;8.52;99.99
17855;BME280;9053;53.358;6.382;2023-02-18T01:51:24;101840.09;;;8.54;100.00
17855;BME280;9053;53.358;6.382;2023-02-18T01:53:58;101818.28;;;8.55;100.00
17855;BME280;9053;53.358;6.382;2023-02-18T01:56:33;101818.41;;;8.57;100.00
17855;BME280;9053;53.358;6.382;2023-02-18T01:59:07;101802.72;;;8.58;100.00
17855;BME280;9053;53.358;6.382;2023-02-18T02:01:41;101794.97;;;8.60;100.00
17855;BME280;9053;53.358;6.382;2023-02-18T02:04:12;101784.53;;;8.61;100.00
17855;BME280;9053;53.358;6.382;2023-02-18T02:06:42;101782.03;;;8.63;100.00
17855;BME280;9053;53.358;6.382;2023-02-18T02:09:13;101782.19;;;8.66;100.00
17855;BME280;9053;53.358;6.382;2023-02-18T02:12:09;101791.94;;;8.69;100.00
17855;BME280;9053;53.358;6.382;2023-02-18T02:15:05;101768.44;;;8.70;100.00
17855;BME280;9053;53.358;6.382;2023-02-18T02:17:48;101772.97;;;8.73;100.00
17855;BME280;9053;53.358;6.382;2023-02-18T02:26:59;101778.47;;;8.77;100.00
17855;BME280;9053;53.358;6.382;2023-02-18T02:30:20;101773.28;;;8.79;100.00
17855;BME280;9053;53.358;6.382;2023-02-18T02:33:23;101758.63;;;8.82;100.00
17855;BME280;9053;53.358;6.382;2023-02-18T02:36:05;101746.41;;;8.83;100.00
17855;BME280;9053;53.358;6.382;2023-02-18T02:38:43;101741.34;;;8.86;100.00
17855;BME280;9053;53.358;6.382;2023-02-18T02:41:23;101739.69;;;8.88;100.00
17855;BME280;9053;53.358;6.382;2023-02-18T02:44:04;101723.22;;;8.91;100.00
17855;BME280;9053;53.358;6.382;2023-02-18T02:46:39;101718.13;;;8.94;100.00
17855;BME280;9053;53.358;6.382;2023-02-18T02:49:18;101716.59;;;8.97;100.00
17855;BME280;9053;53.358;6.382;2023-02-18T02:51:58;101693.94;;;8.99;100.00
17855;BME280;9053;53.358;6.382;2023-02-18T02:54:30;101687.97;;;9.02;100.00
17855;BME280;9053;53.358;6.382;2023-02-18T02:57:05;101672.41;;;9.05;100.00
17855;BME280;9053;53.358;6.382;2023-02-18T02:59:39;101672.56;;;9.08;100.00
17855;BME280;9053;53.358;6.382;2023-02-18T03:02:23;101679.84;;;9.14;100.00
17855;BME280;9053;53.358;6.382;2023-02-18T03:05:10;101680.84;;;9.16;100.00
17855;BME280;9053;53.358;6.382;2023-02-18T03:08:01;101684.44;;;9.18;100.00
17855;BME280;9053;53.358;6.382;2023-02-18T03:10:41;101674.75;;;9.17;100.00
17855;BME280;9053;53.358;6.382;2023-02-18T03:13:21;101669.50;;;9.17;100.00
17855;BME280;9053;53.358;6.382;2023-02-18T03:15:56;101660.75;;;9.16;100.00
17855;BME280;9053;53.358;6.382;2023-02-18T03:18:33;101649.34;;;9.16;100.00
17855;BME280;9053;53.358;6.382;2023-02-18T03:21:08;101644.91;;;9.15;100.00
17855;BME280;9053;53.358;6.382;2023-02-18T03:23:48;101655.50;;;9.16;100.00
17855;BME280;9053;53.358;6.382;2023-02-18T03:26:18;101663.47;;;9.18;100.00
17855;BME280;9053;53.358;6.382;2023-02-18T03:28:50;101664.25;;;9.17;100.00
17855;BME280;9053;53.358;6.382;2023-02-18T03:31:25;101665.09;;;9.16;100.00
17855;BME280;9053;53.358;6.382;2023-02-18T03:34:00;101658.13;;;9.16;100.00
17855;BME280;9053;53.358;6.382;2023-02-18T03:36:32;101651.13;;;9.17;100.00
17855;BME280;9053;53.358;6.382;2023-02-18T03:39:08;101646.88;;;9.19;100.00
17855;BME280;9053;53.358;6.382;2023-02-18T03:41:39;101643.34;;;9.18;100.00
17855;BME280;9053;53.358;6.382;2023-02-18T03:44:10;101629.34;;;9.18;100.00
17855;BME280;9053;53.358;6.382;2023-02-18T03:46:42;101613.41;;;9.15;100.00
17855;BME280;9053;53.358;6.382;2023-02-18T03:49:13;101605.53;;;9.15;100.00
17855;BME280;9053;53.358;6.382;2023-02-18T03:51:43;101609.00;;;9.14;100.00
17855;BME280;9053;53.358;6.382;2023-02-18T03:54:16;101601.03;;;9.12;100.00
17855;BME280;9053;53.358;6.382;2023-02-18T03:56:46;101616.78;;;9.12;100.00
17855;BME280;9053;53.358;6.382;2023-02-18T03:59:15;101622.94;;;9.13;100.00
17855;BME280;9053;53.358;6.382;2023-02-18T04:01:45;101614.09;;;9.10;100.00
17855;BME280;9053;53.358;6.382;2023-02-18T04:04:15;101618.50;;;9.12;100.00
17855;BME280;9053;53.358;6.382;2023-02-18T04:06:45;101610.47;;;9.08;100.00
17855;BME280;9053;53.358;6.382;2023-02-18T04:09:17;101606.06;;;9.07;100.00
17855;BME280;9053;53.358;6.382;2023-02-18T04:11:47;101606.06;;;9.07;100.00
17855;BME280;9053;53.358;6.382;2023-02-18T04:14:17;101595.56;;;9.07;100.00
17855;BME280;9053;53.358;6.382;2023-02-18T04:16:47;101590.38;;;9.09;100.00
17855;BME280;9053;53.358;6.382;2023-02-18T04:19:17;101592.09;;;9.08;100.00
17855;BME280;9053;53.358;6.382;2023-02-18T04:21:46;101583.34;;;9.08;100.00
17855;BME280;9053;53.358;6.382;2023-02-18T04:24:19;101592.94;;;9.07;100.00
17855;BME280;9053;53.358;6.382;2023-02-18T04:26:49;101584.09;;;9.05;100.00
17855;BME280;9053;53.358;6.382;2023-02-18T04:29:18;101571.78;;;9.04;100.00
17855;BME280;9053;53.358;6.382;2023-02-18T04:31:48;101558.66;;;9.04;100.00
17855;BME280;9053;53.358;6.382;2023-02-18T04:34:18;101552.59;;;9.05;100.00
17855;BME280;9053;53.358;6.382;2023-02-18T04:36:48;101552.66;;;9.07;100.00
17855;BME280;9053;53.358;6.382;2023-02-18T04:39:20;101537.75;;;9.06;100.00
17855;BME280;9053;53.358;6.382;2023-02-18T04:41:50;101528.00;;;9.03;100.00
17855;BME280;9053;53.358;6.382;2023-02-18T04:44:20;101516.63;;;9.03;100.00
17855;BME280;9053;53.358;6.382;2023-02-18T04:46:49;101509.63;;;9.03;100.00
17855;BME280;9053;53.358;6.382;2023-02-18T04:49:19;101503.50;;;9.03;100.00
17855;BME280;9053;53.358;6.382;2023-02-18T04:51:49;101488.50;;;9.00;100.00
17855;BME280;9053;53.358;6.382;2023-02-18T04:54:21;101484.88;;;8.98;100.00
17855;BME280;9053;53.358;6.382;2023-02-18T04:56:51;101480.28;;;8.94;100.00
17855;BME280;9053;53.358;6.382;2023-02-18T04:59:21;101464.41;;;8.91;100.00
17855;BME280;9053;53.358;6.382;2023-02-18T05:01:51;101460.00;;;8.90;100.00
17855;BME280;9053;53.358;6.382;2023-02-18T05:04:21;101453.91;;;8.91;100.00
17855;BME280;9053;53.358;6.382;2023-02-18T05:06:50;101436.44;;;8.92;100.00
17855;BME280;9053;53.358;6.382;2023-02-18T05:09:23;101419.16;;;8.95;100.00
17855;BME280;9053;53.358;6.382;2023-02-18T05:11:53;101423.72;;;8.99;100.00
17855;BME280;9053;53.358;6.382;2023-02-18T05:14:22;101410.81;;;9.04;100.00
17855;BME280;9053;53.358;6.382;2023-02-18T05:16:52;101407.53;;;9.08;100.00
17855;BME280;9053;53.358;6.382;2023-02-18T05:19:22;101407.69;;;9.11;100.00
17855;BME280;9053;53.358;6.382;2023-02-18T05:21:52;101402.66;;;9.16;100.00
17855;BME280;9053;53.358;6.382;2023-02-18T05:24:24;101408.06;;;9.19;100.00
17855;BME280;9053;53.358;6.382;2023-02-18T05:26:54;101406.41;;;9.21;100.00
17855;BME280;9053;53.358;6.382;2023-02-18T05:29:24;101401.16;;;9.21;100.00
17855;BME280;9053;53.358;6.382;2023-02-18T05:31:53;101395.91;;;9.21;100.00
17855;BME280;9053;53.358;6.382;2023-02-18T05:34:23;101396.75;;;9.20;100.00
17855;BME280;9053;53.358;6.382;2023-02-18T05:36:53;101388.94;;;9.21;100.00
17855;BME280;9053;53.358;6.382;2023-02-18T05:39:26;101375.88;;;9.23;100.00
17855;BME280;9053;53.358;6.382;2023-02-18T05:41:55;101366.38;;;9.25;100.00
17855;BME280;9053;53.358;6.382;2023-02-18T05:44:25;101361.13;;;9.25;100.00
17855;BME280;9053;53.358;6.382;2023-02-18T05:47:03;101361.16;;;9.26;100.00
17855;BME280;9053;53.358;6.382;2023-02-18T05:49:38;101354.19;;;9.27;100.00
17855;BME280;9053;53.358;6.382;2023-02-18T05:52:08;101352.50;;;9.27;100.00
17855;BME280;9053;53.358;6.382;2023-02-18T05:54:41;101338.53;;;9.28;100.00
17855;BME280;9053;53.358;6.382;2023-02-18T05:57:12;101341.16;;;9.28;100.00
17855;BME280;9053;53.358;6.382;2023-02-18T05:59:42;101345.66;;;9.31;100.00
17855;BME280;9053;53.358;6.382;2023-02-18T06:02:12;101330.88;;;9.33;100.00
17855;BME280;9053;53.358;6.382;2023-02-18T06:04:42;101321.19;;;9.32;100.00
17855;BME280;9053;53.358;6.382;2023-02-18T06:07:11;101317.75;;;9.33;100.00
17855;BME280;9053;53.358;6.382;2023-02-18T06:09:44;101319.53;;;9.34;100.00
17855;BME280;9053;53.358;6.382;2023-02-18T06:12:14;101302.88;;;9.34;100.00
17855;BME280;9053;53.358;6.382;2023-02-18T06:14:44;101294.19;;;9.35;100.00
17855;BME280;9053;53.358;6.382;2023-02-18T06:17:14;101288.03;;;9.34;100.00
17855;BME280;9053;53.358;6.382;2023-02-18T06:19:45;101286.25;;;9.33;100.00
17855;BME280;9053;53.358;6.382;2023-02-18T06:22:14;101284.44;;;9.32;100.00
17855;BME280;9053;53.358;6.382;2023-02-18T06:24:47;101283.63;;;9.33;100.00
17855;BME280;9053;53.358;6.382;2023-02-18T06:27:17;101281.13;;;9.36;100.00
17855;BME280;9053;53.358;6.382;2023-02-18T06:29:46;101279.41;;;9.37;100.00
17855;BME280;9053;53.358;6.382;2023-02-18T06:32:16;101282.91;;;9.37;100.00
17855;BME280;9053;53.358;6.382;2023-02-18T06:34:46;101275.97;;;9.38;100.00
17855;BME280;9053;53.358;6.382;2023-02-18T06:37:16;101264.63;;;9.39;100.00
17855;BME280;9053;53.358;6.382;2023-02-18T06:39:48;101265.66;;;9.42;100.00
17855;BME280;9053;53.358;6.382;2023-02-18T06:42:18;101267.47;;;9.43;100.00
17855;BME280;9053;53.358;6.382;2023-02-18T06:44:48;101255.31;;;9.45;100.00
17855;BME280;9053;53.358;6.382;2023-02-18T06:47:18;101254.56;;;9.48;100.00
17855;BME280;9053;53.358;6.382;2023-02-18T06:49:48;101255.44;;;9.48;100.00
17855;BME280;9053;53.358;6.382;2023-02-18T06:52:17;101245.97;;;9.52;100.00
17855;BME280;9053;53.358;6.382;2023-02-18T06:54:50;101239.06;;;9.54;100.00
17855;BME280;9053;53.358;6.382;2023-02-18T06:57:20;101236.63;;;9.59;100.00
17855;BME280;9053;53.358;6.382;2023-02-18T06:59:49;101224.59;;;9.64;100.00
17855;BME280;9053;53.358;6.382;2023-02-18T07:02:19;101226.53;;;9.68;100.00
17855;BME280;9053;53.358;6.382;2023-02-18T07:04:49;101219.75;;;9.73;100.00
17855;BME280;9053;53.358;6.382;2023-02-18T07:07:19;101210.34;;;9.78;100.00
17855;BME280;9053;53.358;6.382;2023-02-18T07:09:51;101215.81;;;9.83;100.00
17855;BME280;9053;53.358;6.382;2023-02-18T07:12:21;101209.81;;;9.87;100.00
17855;BME280;9053;53.358;6.382;2023-02-18T07:14:51;101212.66;;;9.91;100.00
17855;BME280;9053;53.358;6.382;2023-02-18T07:17:20;101211.97;;;9.95;100.00
17855;BME280;9053;53.358;6.382;2023-02-18T07:19:50;101196.31;;;9.99;100.00
17855;BME280;9053;53.358;6.382;2023-02-18T07:22:21;101189.41;;;10.01;100.00
17855;BME280;9053;53.358;6.382;2023-02-18T07:24:54;101186.00;;;10.03;100.00
17855;BME280;9053;53.358;6.382;2023-02-18T07:27:24;101181.69;;;10.05;100.00
17855;BME280;9053;53.358;6.382;2023-02-18T07:29:54;101180.91;;;10.08;100.00
17855;BME280;9053;53.358;6.382;2023-02-18T07:32:24;101191.56;;;10.11;100.00
17855;BME280;9053;53.358;6.382;2023-02-18T07:34:53;101189.88;;;10.13;100.00
17855;BME280;9053;53.358;6.382;2023-02-18T07:37:23;101198.69;;;10.13;100.00
17855;BME280;9053;53.358;6.382;2023-02-18T07:39:56;101194.44;;;10.17;100.00
17855;BME280;9053;53.358;6.382;2023-02-18T07:42:26;101197.97;;;10.17;100.00
17855;BME280;9053;53.358;6.382;2023-02-18T07:44:55;101193.56;;;10.16;100.00
17855;BME280;9053;53.358;6.382;2023-02-18T07:47:25;101178.75;;;10.18;100.00
17855;BME280;9053;53.358;6.382;2023-02-18T07:50:00;101171.88;;;10.22;100.00
17855;BME280;9053;53.358;6.382;2023-02-18T07:52:31;101180.66;;;10.23;100.00
17855;BME280;9053;53.358;6.382;2023-02-18T07:55:03;101178.94;;;10.23;100.00
17855;BME280;9053;53.358;6.382;2023-02-18T07:57:33;101176.31;;;10.23;100.00
17855;BME280;9053;53.358;6.382;2023-02-18T08:00:23;101170.22;;;10.24;100.00
17855;BME280;9053;53.358;6.382;2023-02-18T08:02:53;101178.97;;;10.25;100.00
17855;BME280;9053;53.358;6.382;2023-02-18T08:05:23;101179.88;;;10.25;100.00
17855;BME280;9053;53.358;6.382;2023-02-18T08:07:52;101173.72;;;10.25;100.00
17855;BME280;9053;53.358;6.382;2023-02-18T08:10:28;101183.44;;;10.26;100.00
17855;BME280;9053;53.358;6.382;2023-02-18T08:12:58;101176.50;;;10.28;100.00
17855;BME280;9053;53.358;6.382;2023-02-18T08:15:28;101167.69;;;10.27;100.00
17855;BME280;9053;53.358;6.382;2023-02-18T08:17:58;101169.34;;;10.25;100.00
17855;BME280;9053;53.358;6.382;2023-02-18T08:20:28;101178.97;;;10.25;100.00
17855;BME280;9053;53.358;6.382;2023-02-18T08:22:57;101180.72;;;10.24;100.00
17855;BME280;9053;53.358;6.382;2023-02-18T08:25:30;101187.75;;;10.25;100.00
17855;BME280;9053;53.358;6.382;2023-02-18T08:28:00;101178.03;;;10.23;100.00
17855;BME280;9053;53.358;6.382;2023-02-18T08:30:30;101181.41;;;10.20;100.00
17855;BME280;9053;53.358;6.382;2023-02-18T08:33:00;101184.91;;;10.19;100.00
17855;BME280;9053;53.358;6.382;2023-02-18T08:35:30;101175.06;;;10.15;100.00
17855;BME280;9053;53.358;6.382;2023-02-18T08:38:00;101177.72;;;10.15;100.00
17855;BME280;9053;53.358;6.382;2023-02-18T08:40:41;101175.94;;;10.14;100.00
17855;BME280;9053;53.358;6.382;2023-02-18T08:43:12;101193.38;;;10.12;100.00
17855;BME280;9053;53.358;6.382;2023-02-18T08:45:43;101163.56;;;10.11;100.00
17855;BME280;9053;53.358;6.382;2023-02-18T08:48:14;101177.47;;;10.09;100.00
17855;BME280;9053;53.358;6.382;2023-02-18T08:50:46;101171.25;;;10.07;100.00
17855;BME280;9053;53.358;6.382;2023-02-18T08:53:16;101176.44;;;10.05;100.00
17855;BME280;9053;53.358;6.382;2023-02-18T08:55:49;101172.91;;;10.05;100.00
17855;BME280;9053;53.358;6.382;2023-02-18T08:58:19;101173.69;;;10.02;100.00
17855;BME280;9053;53.358;6.382;2023-02-18T09:00:49;101164.84;;;10.00;100.00
17855;BME280;9053;53.358;6.382;2023-02-18T09:03:19;101169.16;;;9.98;100.00
17855;BME280;9053;53.358;6.382;2023-02-18T09:05:49;101160.31;;;9.96;100.00
17855;BME280;9053;53.358;6.382;2023-02-18T09:08:19;101176.00;;;9.94;100.00
17855;BME280;9053;53.358;6.382;2023-02-18T09:10:54;101173.38;;;9.94;100.00
17855;BME280;9053;53.358;6.382;2023-02-18T09:13:24;101155.81;;;9.93;100.00
17855;BME280;9053;53.358;6.382;2023-02-18T09:15:56;101171.50;;;9.92;100.00
17855;BME280;9053;53.358;6.382;2023-02-18T09:18:26;101188.16;;;9.92;100.00
17855;BME280;9053;53.358;6.382;2023-02-18T09:20:57;101177.72;;;9.94;100.00
17855;BME280;9053;53.358;6.382;2023-02-18T09:23:29;101169.78;;;9.92;100.00
17855;BME280;9053;53.358;6.382;2023-02-18T09:26:03;101190.78;;;9.92;100.00
17855;BME280;9053;53.358;6.382;2023-02-18T09:28:33;101189.97;;;9.93;100.00
17855;BME280;9053;53.358;6.382;2023-02-18T09:31:04;101186.38;;;9.91;100.00
17855;BME280;9053;53.358;6.382;2023-02-18T09:33:35;101197.00;;;9.94;100.00
17855;BME280;9053;53.358;6.382;2023-02-18T09:36:06;101193.56;;;9.95;100.00
17855;BME280;9053;53.358;6.382;2023-02-18T09:38:36;101193.56;;;9.95;100.00
17855;BME280;9053;53.358;6.382;2023-02-18T09:41:14;101186.63;;;9.97;100.00
17855;BME280;9053;53.358;6.382;2023-02-18T09:43:48;101199.75;;;9.97;100.00
17855;BME280;9053;53.358;6.382;2023-02-18T09:46:21;101183.19;;;9.99;100.00
17855;BME280;9053;53.358;6.382;2023-02-18T09:48:52;101187.59;;;10.00;100.00
17855;BME280;9053;53.358;6.382;2023-02-18T09:51:22;101189.53;;;10.04;100.00
17855;BME280;9053;53.358;6.382;2023-02-18T09:53:52;101197.59;;;10.08;100.00
17855;BME280;9053;53.358;6.382;2023-02-18T09:56:27;101192.47;;;10.11;100.00
17855;BME280;9053;53.358;6.382;2023-02-18T09:58:59;101183.81;;;10.14;100.00
17855;BME280;9053;53.358;6.382;2023-02-18T10:01:33;101198.72;;;10.15;100.00
17855;BME280;9053;53.358;6.382;2023-02-18T10:04:12;101170.78;;;10.17;100.00
17855;BME280;9053;53.358;6.382;2023-02-18T10:06:45;101177.84;;;10.18;100.00
17855;BME280;9053;53.358;6.382;2023-02-18T10:09:19;101185.88;;;10.21;100.00
17855;BME280;9053;53.358;6.382;2023-02-18T10:11:55;101193.78;;;10.23;100.00
17855;BME280;9053;53.358;6.382;2023-02-18T10:14:26;101202.59;;;10.23;100.00
17855;BME280;9053;53.358;6.382;2023-02-18T10:16:57;101193.94;;;10.26;100.00
17855;BME280;9053;53.358;6.382;2023-02-18T10:19:31;101189.56;;;10.26;100.00
17855;BME280;9053;53.358;6.382;2023-02-18T10:22:05;101191.47;;;10.29;100.00
17855;BME280;9053;53.358;6.382;2023-02-18T10:24:38;101192.47;;;10.32;100.00
17855;BME280;9053;53.358;6.382;2023-02-18T10:27:17;101205.81;;;10.37;100.00
17855;BME280;9053;53.358;6.382;2023-02-18T10:29:49;101205.03;;;10.39;100.00
17855;BME280;9053;53.358;6.382;2023-02-18T10:32:22;101199.88;;;10.43;100.00
17855;BME280;9053;53.358;6.382;2023-02-18T10:34:55;101208.84;;;10.48;100.00
17855;BME280;9053;53.358;6.382;2023-02-18T10:37:43;101202.91;;;10.52;100.00
17855;BME280;9053;53.358;6.382;2023-02-18T10:40:17;101195.22;;;10.58;100.00
17855;BME280;9053;53.358;6.382;2023-02-18T10:43:02;101219.97;;;10.63;100.00
17855;BME280;9053;53.358;6.382;2023-02-18T10:45:41;101216.66;;;10.67;100.00
17855;BME280;9053;53.358;6.382;2023-02-18T10:48:28;101215.88;;;10.70;100.00
17855;BME280;9053;53.358;6.382;2023-02-18T10:51:07;101209.84;;;10.72;100.00
17855;BME280;9053;53.358;6.382;2023-02-18T10:53:43;101217.03;;;10.76;100.00
17855;BME280;9053;53.358;6.382;2023-02-18T10:56:32;101217.25;;;10.82;100.00
17855;BME280;9053;53.358;6.382;2023-02-18T10:59:18;101235.78;;;10.86;100.00
17855;BME280;9053;53.358;6.382;2023-02-18T11:01:54;101219.28;;;10.90;100.00
17855;BME280;9053;53.358;6.382;2023-02-18T11:04:26;101201.84;;;10.93;100.00
17855;BME280;9053;53.358;6.382;2023-02-18T11:07:03;101235.44;;;10.99;100.00
17855;BME280;9053;53.358;6.382;2023-02-18T11:09:39;101232.91;;;11.02;100.00
17855;BME280;9053;53.358;6.382;2023-02-18T11:12:14;101243.47;;;11.03;100.00
17855;BME280;9053;53.358;6.382;2023-02-18T11:15:04;101228.66;;;11.05;100.00
17855;BME280;9053;53.358;6.382;2023-02-18T11:17:35;101240.13;;;11.08;100.00
17855;BME280;9053;53.358;6.382;2023-02-18T11:20:22;101241.13;;;11.11;100.00
17855;BME280;9053;53.358;6.382;2023-02-18T11:22:56;101252.63;;;11.13;100.00
17855;BME280;9053;53.358;6.382;2023-02-18T11:25:30;101235.22;;;11.17;100.00
17855;BME280;9053;53.358;6.382;2023-02-18T11:28:02;101249.41;;;11.20;100.00
17855;BME280;9053;53.358;6.382;2023-02-18T11:30:38;101257.53;;;11.26;100.00
17855;BME280;9053;53.358;6.382;2023-02-18T11:33:16;101254.16;;;11.31;100.00
17855;BME280;9053;53.358;6.382;2023-02-18T11:35:48;101263.03;;;11.33;100.00
17855;BME280;9053;53.358;6.382;2023-02-18T11:38:22;101247.41;;;11.37;100.00
17855;BME280;9053;53.358;6.382;2023-02-18T11:40:55;101258.81;;;11.38;100.00
17855;BME280;9053;53.358;6.382;2023-02-18T11:43:28;101260.56;;;11.37;100.00
17855;BME280;9053;53.358;6.382;2023-02-18T11:46:13;101259.00;;;11.42;100.00
17855;BME280;9053;53.358;6.382;2023-02-18T11:48:44;101271.31;;;11.43;100.00
17855;BME280;9053;53.358;6.382;2023-02-18T11:51:16;101267.91;;;11.46;100.00
17855;BME280;9053;53.358;6.382;2023-02-18T11:53:55;101265.25;;;11.46;100.00
17855;BME280;9053;53.358;6.382;2023-02-18T11:56:28;101272.34;;;11.47;100.00
17855;BME280;9053;53.358;6.382;2023-02-18T11:59:00;101276.81;;;11.50;100.00
17855;BME280;9053;53.358;6.382;2023-02-18T12:01:44;101283.16;;;11.55;100.00
17855;BME280;9053;53.358;6.382;2023-02-18T12:04:16;101277.09;;;11.57;100.00
17855;BME280;9053;53.358;6.382;2023-02-18T12:06:51;101293.97;;;11.62;100.00
17855;BME280;9053;53.358;6.382;2023-02-18T12:09:28;101288.03;;;11.68;100.00
17855;BME280;9053;53.358;6.382;2023-02-18T12:12:02;101280.28;;;11.73;100.00
17855;BME280;9053;53.358;6.382;2023-02-18T12:14:35;101296.13;;;11.74;100.00
17855;BME280;9053;53.358;6.382;2023-02-18T12:17:29;101276.91;;;11.77;100.00
17855;BME280;9053;53.358;6.382;2023-02-18T12:23:21;101289.25;;;11.78;100.00
17855;BME280;9053;53.358;6.382;2023-02-18T12:25:59;101297.22;;;11.79;100.00
17855;BME280;9053;53.358;6.382;2023-02-18T12:28:49;101315.53;;;11.76;100.00
17855;BME280;9053;53.358;6.382;2023-02-18T12:31:37;101301.47;;;11.76;100.00
17855;BME280;9053;53.358;6.382;2023-02-18T12:34:27;101300.59;;;11.75;100.00
17855;BME280;9053;53.358;6.382;2023-02-18T12:37:07;101302.59;;;11.82;100.00
17855;BME280;9053;53.358;6.382;2023-02-18T12:39:54;101300.00;;;11.84;100.00
17855;BME280;9053;53.358;6.382;2023-02-18T12:42:38;101308.09;;;11.87;100.00
17855;BME280;9053;53.358;6.382;2023-02-18T12:45:34;101304.88;;;11.96;100.00
17855;BME280;9053;53.358;6.382;2023-02-18T12:48:18;101328.75;;;12.00;100.00
17855;BME280;9053;53.358;6.382;2023-02-18T12:51:11;101334.03;;;12.00;100.00
17855;BME280;9053;53.358;6.382;2023-02-18T12:54:01;101333.97;;;11.99;100.00
17855;BME280;9053;53.358;6.382;2023-02-18T12:56:52;101331.22;;;11.96;100.00
17855;BME280;9053;53.358;6.382;2023-02-18T13:02:41;101342.56;;;11.93;100.00
17855;BME280;9053;53.358;6.382;2023-02-18T13:05:24;101340.78;;;11.92;100.00
17855;BME280;9053;53.358;6.382;2023-02-18T13:08:05;101331.94;;;11.91;100.00
17855;BME280;9053;53.358;6.382;2023-02-18T13:11:00;101343.25;;;11.87;100.00
17855;BME280;9053;53.358;6.382;2023-02-18T13:13:33;101349.25;;;11.85;100.00
17855;BME280;9053;53.358;6.382;2023-02-18T13:16:09;101332.59;;;11.86;100.00
17855;BME280;9053;53.358;6.382;2023-02-18T13:18:44;101348.69;;;11.92;100.00
17855;BME280;9053;53.358;6.382;2023-02-18T13:21:16;101355.22;;;12.03;100.00
17855;BME280;9053;53.358;6.382;2023-02-18T13:23:51;101351.91;;;12.09;100.00
17855;BME280;9053;53.358;6.382;2023-02-18T13:26:23;101360.69;;;12.09;100.00
17855;BME280;9053;53.358;6.382;2023-02-18T13:29:06;101359.94;;;12.12;100.00
17855;BME280;9053;53.358;6.382;2023-02-18T13:31:45;101365.16;;;12.10;100.00
17855;BME280;9053;53.358;6.382;2023-02-18T13:34:24;101363.31;;;12.08;100.00
17855;BME280;9053;53.358;6.382;2023-02-18T13:37:06;101363.34;;;12.09;100.00
17855;BME280;9053;53.358;6.382;2023-02-18T13:39:47;101358.13;;;12.11;100.00
17855;BME280;9053;53.358;6.382;2023-02-18T13:42:39;101374.84;;;12.11;100.00
17855;BME280;9053;53.358;6.382;2023-02-18T13:45:24;101364.25;;;12.10;100.00